Time;durP1;ratioP1;P1;durP2;ratioP2;P2;SDS_P1;SDS_P2;PMS_P1;PMS_P2;Temp;Humidity;BMP_temperature;BMP_pressure;BME280_temperature;BME280_humidity;BME280_pressure;Samples;Min_cycle;Max_cycle;Signal;HPM_P1;HPM_P2
2023/03/26 00:01:23;;;;;;;22.42;4.32;;;10.10;99.90;;;;;;5048904;28;20036;-60
2023/03/26 00:03:56;;;;;;;21.92;4.20;;;9.80;99.90;;;;;;5053214;28;20403;-60
2023/03/26 00:06:24;;;;;;;22.70;4.47;;;10.10;99.90;;;;;;5052106;28;20108;-60
2023/03/26 00:08:51;;;;;;;17.45;3.70;;;10.10;99.90;;;;;;5033881;28;20037;-60
2023/03/26 00:11:20;;;;;;;18.83;4.20;;;9.90;99.90;;;;;;5043263;28;20040;-60
2023/03/26 00:13:46;;;;;;;20.98;4.07;;;10.40;99.90;;;;;;5053585;28;20402;-60
2023/03/26 00:16:15;;;;;;;23.58;4.05;;;10.40;99.90;;;;;;5046633;28;20498;-59
2023/03/26 00:18:42;;;;;;;26.42;4.57;;;9.80;99.90;;;;;;5032276;28;20069;-60
2023/03/26 00:21:13;;;;;;;17.55;4.45;;;10.10;99.90;;;;;;5043810;28;20068;-60
2023/03/26 00:23:38;;;;;;;22.23;4.28;;;10.10;99.90;;;;;;5041203;28;20117;-59
2023/03/26 00:26:09;;;;;;;24.58;4.35;;;10.40;99.90;;;;;;5039328;28;20080;-60
2023/03/26 00:28:39;;;;;;;21.05;3.80;;;10.30;99.90;;;;;;5035757;28;20465;-60
2023/03/26 00:31:07;;;;;;;25.85;4.55;;;9.90;99.90;;;;;;5039686;28;20041;-60
2023/03/26 00:33:37;;;;;;;25.08;4.93;;;10.30;99.90;;;;;;5052895;28;20040;-60
2023/03/26 00:36:04;;;;;;;16.92;3.85;;;10.40;99.90;;;;;;5052548;28;20055;-60
2023/03/26 00:38:32;;;;;;;17.75;4.10;;;10.10;99.90;;;;;;5036522;28;20473;-60
2023/03/26 00:41:04;;;;;;;29.00;4.80;;;9.90;99.90;;;;;;5037541;28;20044;-59
2023/03/26 00:43:32;;;;;;;18.02;4.07;;;10.70;99.90;;;;;;5052832;28;20063;-60
2023/03/26 00:45:58;;;;;;;28.42;4.65;;;9.90;99.90;;;;;;5050989;28;20036;-60
2023/03/26 00:48:24;;;;;;;23.92;4.68;;;10.40;99.90;;;;;;5049524;28;20505;-60
2023/03/26 00:50:50;;;;;;;22.23;4.60;;;10.30;99.90;;;;;;5050969;28;20040;-60
2023/03/26 00:53:18;;;;;;;20.83;4.57;;;10.40;99.90;;;;;;5043762;28;20045;-60
2023/03/26 00:55:45;;;;;;;29.52;5.22;;;10.30;99.90;;;;;;5038237;28;20494;-60
2023/03/26 00:58:12;;;;;;;24.10;4.60;;;10.30;99.90;;;;;;5050525;28;20143;-63
2023/03/26 01:00:49;;;;;;;27.20;4.93;;;10.20;99.90;;;;;;5034120;28;20117;-60
2023/03/26 01:03:17;;;;;;;21.88;4.57;;;9.90;99.90;;;;;;5037242;28;20403;-59
2023/03/26 01:05:47;;;;;;;23.45;4.25;;;9.90;99.90;;;;;;5033590;28;20042;-60
2023/03/26 01:08:35;;;;;;;25.10;4.35;;;10.00;99.90;;;;;;5035332;28;20076;-60
2023/03/26 01:11:14;;;;;;;31.55;4.80;;;10.30;99.90;;;;;;5035821;28;20072;-59
2023/03/26 01:14:03;;;;;;;27.60;4.57;;;10.30;99.90;;;;;;5050949;28;20045;-59
2023/03/26 01:16:44;;;;;;;28.45;5.03;;;9.80;99.90;;;;;;5032772;28;20053;-59
2023/03/26 01:19:32;;;;;;;21.40;4.35;;;10.30;99.90;;;;;;5032575;28;20111;-59
2023/03/26 01:21:59;;;;;;;23.98;4.32;;;9.80;99.90;;;;;;5050080;28;20445;-59
2023/03/26 01:24:25;;;;;;;23.20;4.82;;;9.80;99.90;;;;;;5046018;28;20069;-60
2023/03/26 01:27:12;;;;;;;19.60;4.38;;;9.80;99.90;;;;;;5044112;28;20482;-59
2023/03/26 01:29:51;;;;;;;25.98;5.30;;;9.80;99.90;;;;;;5044986;28;20041;-59
2023/03/26 01:32:46;;;;;;;20.88;4.15;;;9.80;99.90;;;;;;5042882;28;20033;-60
2023/03/26 01:35:21;;;;;;;27.90;4.50;;;9.80;99.90;;;;;;5037340;28;20034;-59
2023/03/26 01:38:11;;;;;;;23.13;4.93;;;10.20;99.90;;;;;;5041141;28;20038;-60
2023/03/26 01:40:48;;;;;;;26.63;4.18;;;9.90;99.90;;;;;;5071578;28;20407;-59
2023/03/26 01:43:16;;;;;;;25.05;5.10;;;9.70;99.90;;;;;;5051859;28;20037;-60
2023/03/26 01:45:44;;;;;;;33.92;5.72;;;9.70;99.90;;;;;;5050970;28;20048;-60
2023/03/26 01:48:11;;;;;;;24.83;4.88;;;10.10;99.90;;;;;;5047675;28;20103;-60
2023/03/26 01:50:37;;;;;;;23.30;5.13;;;10.10;99.90;;;;;;5050475;28;20479;-60
2023/03/26 01:53:03;;;;;;;22.20;4.40;;;10.10;99.90;;;;;;5051270;28;20033;-59
2023/03/26 01:55:49;;;;;;;23.83;4.75;;;9.60;99.90;;;;;;5050992;28;20032;-60
2023/03/26 01:58:28;;;;;;;26.67;5.07;;;10.10;99.90;;;;;;5050662;28;20455;-60
2023/03/26 02:01:11;;;;;;;21.63;4.18;;;10.20;99.90;;;;;;5034278;28;20046;-60
2023/03/26 02:03:51;;;;;;;22.25;4.05;;;10.00;99.90;;;;;;5031432;28;20128;-59
2023/03/26 02:06:36;;;;;;;14.15;3.88;;;9.60;99.90;;;;;;5034216;28;20041;-59
2023/03/26 02:09:10;;;;;;;25.25;4.68;;;9.60;99.90;;;;;;5035966;28;20040;-59
2023/03/26 02:11:38;;;;;;;18.58;4.07;;;9.50;99.90;;;;;;5036224;28;20037;-60
2023/03/26 02:14:06;;;;;;;23.42;4.03;;;9.70;99.90;;;;;;5050807;28;20124;-60
2023/03/26 02:16:31;;;;;;;19.45;4.20;;;9.60;99.90;;;;;;5050749;28;20025;-59
2023/03/26 02:18:58;;;;;;;28.13;4.88;;;9.60;99.90;;;;;;5050483;28;20532;-60
2023/03/26 02:21:25;;;;;;;20.80;3.88;;;9.40;99.90;;;;;;5050502;28;20053;-59
2023/03/26 02:24:01;;;;;;;26.75;4.75;;;9.50;99.90;;;;;;5050752;28;20376;-59
2023/03/26 02:26:32;;;;;;;20.55;4.28;;;9.30;99.90;;;;;;5050448;28;20115;-59
2023/03/26 02:28:58;;;;;;;25.33;4.70;;;9.30;99.90;;;;;;5050349;28;20044;-62
2023/03/26 02:31:25;;;;;;;21.08;4.85;;;9.10;99.90;;;;;;5044026;28;20041;-59
2023/03/26 02:33:51;;;;;;;21.02;3.92;;;9.20;99.90;;;;;;5051025;28;20040;-59
2023/03/26 02:36:23;;;;;;;29.83;4.65;;;8.90;99.90;;;;;;5050538;28;20063;-60
2023/03/26 02:38:49;;;;;;;18.45;3.45;;;9.10;99.90;;;;;;5050016;28;20063;-59
2023/03/26 02:41:15;;;;;;;24.10;3.85;;;9.10;99.90;;;;;;5034996;28;20116;-59
2023/03/26 02:43:41;;;;;;;19.92;4.50;;;8.90;99.90;;;;;;5050780;28;20116;-59
2023/03/26 02:46:06;;;;;;;23.23;3.92;;;8.80;99.90;;;;;;5054754;28;20032;-59
2023/03/26 02:48:33;;;;;;;16.77;3.53;;;9.10;99.90;;;;;;5037036;28;20103;-60
2023/03/26 02:51:02;;;;;;;21.02;3.55;;;8.90;99.90;;;;;;5043980;28;20041;-59
2023/03/26 02:53:30;;;;;;;19.85;4.07;;;8.90;99.90;;;;;;5033711;28;20453;-59
2023/03/26 02:55:58;;;;;;;20.60;3.70;;;9.00;99.90;;;;;;5037989;28;20037;-59
2023/03/26 02:58:25;;;;;;;16.73;3.25;;;9.20;99.90;;;;;;5047967;28;20036;-60
2023/03/26 03:00:53;;;;;;;20.15;3.88;;;9.00;99.90;;;;;;5050551;28;20033;-59
2023/03/26 03:03:26;;;;;;;24.23;4.25;;;9.10;99.90;;;;;;5050923;28;20462;-59
2023/03/26 03:05:55;;;;;;;24.95;4.15;;;9.40;99.90;;;;;;5049701;28;20045;-60
2023/03/26 03:08:23;;;;;;;24.60;4.68;;;9.20;99.90;;;;;;5048773;28;20512;-59
2023/03/26 03:11:06;;;;;;;14.45;3.33;;;9.20;99.90;;;;;;5050261;28;20044;-59
2023/03/26 03:13:31;;;;;;;21.00;3.75;;;9.40;99.90;;;;;;5050417;28;20051;-59
2023/03/26 03:15:57;;;;;;;19.70;3.60;;;9.30;99.90;;;;;;5050228;28;20041;-60
2023/03/26 03:18:22;;;;;;;21.65;4.13;;;9.30;99.90;;;;;;5048756;28;20029;-60
2023/03/26 03:20:48;;;;;;;23.20;4.65;;;9.40;99.90;;;;;;5040553;28;20036;-60
2023/03/26 03:23:14;;;;;;;25.40;4.53;;;9.20;99.90;;;;;;5050641;28;20044;-59
2023/03/26 03:25:41;;;;;;;23.60;4.13;;;9.20;99.90;;;;;;5050577;28;20076;-59
2023/03/26 03:28:07;;;;;;;20.85;4.70;;;9.30;99.90;;;;;;5038391;28;20041;-60
2023/03/26 03:30:33;;;;;;;26.90;4.47;;;9.50;99.90;;;;;;5045606;28;20043;-59
2023/03/26 03:33:01;;;;;;;20.55;4.72;;;9.90;99.90;;;;;;5029897;28;20042;-59
2023/03/26 03:35:27;;;;;;;20.45;4.57;;;9.50;99.90;;;;;;5036220;28;20044;-59
2023/03/26 03:37:52;;;;;;;33.30;5.18;;;9.50;99.90;;;;;;5045342;28;20092;-60
2023/03/26 03:40:18;;;;;;;20.35;4.78;;;9.30;99.90;;;;;;5034150;28;20073;-59
2023/03/26 03:42:45;;;;;;;32.08;5.53;;;9.40;99.90;;;;;;5034009;28;20042;-59
2023/03/26 03:45:11;;;;;;;22.30;4.57;;;9.50;99.90;;;;;;5034031;28;20172;-60
2023/03/26 03:47:37;;;;;;;25.40;4.18;;;9.30;99.90;;;;;;5034629;28;20079;-60
2023/03/26 03:50:03;;;;;;;26.23;4.57;;;9.30;99.90;;;;;;5037702;28;20072;-59
2023/03/26 03:52:29;;;;;;;25.98;4.47;;;9.50;99.90;;;;;;5053532;28;20094;-59
2023/03/26 03:54:56;;;;;;;26.73;4.65;;;9.50;99.90;;;;;;5053683;28;20045;-59
2023/03/26 03:57:22;;;;;;;23.85;4.22;;;9.20;99.90;;;;;;5040361;28;20089;-60
2023/03/26 03:59:48;;;;;;;19.40;3.80;;;9.20;99.90;;;;;;5052287;28;20119;-59
2023/03/26 04:02:24;;;;;;;24.88;4.78;;;9.20;99.90;;;;;;5053676;28;20510;-60
2023/03/26 04:04:51;;;;;;;22.25;3.95;;;9.50;99.90;;;;;;5048892;28;20042;-59
2023/03/26 04:07:16;;;;;;;22.02;4.13;;;9.40;99.90;;;;;;5036408;28;20041;-60
2023/03/26 04:09:42;;;;;;;21.50;4.32;;;9.40;99.90;;;;;;5052295;28;20449;-60
2023/03/26 04:12:07;;;;;;;14.85;3.42;;;9.00;99.90;;;;;;5053701;28;20043;-60
2023/03/26 04:14:33;;;;;;;25.55;4.15;;;9.00;99.90;;;;;;5040440;28;20037;-59
2023/03/26 04:16:59;;;;;;;17.48;3.22;;;9.00;99.90;;;;;;5033389;28;20033;-59
2023/03/26 04:19:26;;;;;;;29.20;4.13;;;10.10;99.90;;;;;;5036642;28;20112;-59
2023/03/26 04:21:51;;;;;;;15.00;3.40;;;9.30;99.90;;;;;;5052514;28;20053;-59
2023/03/26 04:24:17;;;;;;;16.92;3.83;;;9.10;99.90;;;;;;5052361;28;20571;-59
2023/03/26 04:26:42;;;;;;;22.02;3.63;;;9.10;99.90;;;;;;5053264;28;20116;-59
2023/03/26 04:29:12;;;;;;;20.73;3.35;;;9.10;99.90;;;;;;5053476;28;20032;-60
2023/03/26 04:31:38;;;;;;;14.88;3.28;;;9.10;99.90;;;;;;5048327;28;20042;-60
2023/03/26 04:34:13;;;;;;;24.05;3.78;;;9.10;99.90;;;;;;5033646;28;20120;-59
2023/03/26 04:36:41;;;;;;;17.88;3.45;;;9.00;99.90;;;;;;5033225;28;20087;-60
2023/03/26 04:39:10;;;;;;;17.20;3.58;;;9.00;99.90;;;;;;5032514;28;20045;-60
2023/03/26 04:41:36;;;;;;;22.40;4.00;;;9.10;99.90;;;;;;5033107;28;20435;-60
2023/03/26 04:44:02;;;;;;;21.92;4.32;;;9.00;99.90;;;;;;5038335;28;20043;-59
2023/03/26 04:46:27;;;;;;;19.55;3.80;;;9.00;99.90;;;;;;5032653;28;20048;-59
2023/03/26 04:48:53;;;;;;;15.38;3.67;;;9.00;99.90;;;;;;5032097;28;20046;-59
2023/03/26 04:51:23;;;;;;;21.33;4.57;;;9.00;99.90;;;;;;5032901;28;20415;-60
2023/03/26 04:53:57;;;;;;;16.73;4.43;;;9.00;99.90;;;;;;5037141;28;20558;-59
2023/03/26 04:56:32;;;;;;;22.65;3.97;;;9.20;99.90;;;;;;5041240;28;20042;-61
2023/03/26 04:59:00;;;;;;;31.20;4.20;;;8.90;99.90;;;;;;5032433;28;20049;-59
2023/03/26 05:01:27;;;;;;;26.70;4.25;;;8.90;99.90;;;;;;5047601;28;20029;-60
2023/03/26 05:03:53;;;;;;;24.55;4.30;;;9.10;99.90;;;;;;5050880;28;20055;-60
2023/03/26 05:06:20;;;;;;;21.52;4.05;;;9.00;99.90;;;;;;5051123;28;20048;-60
2023/03/26 05:08:46;;;;;;;26.30;4.00;;;8.70;99.90;;;;;;5052442;28;20060;-60
2023/03/26 05:11:12;;;;;;;23.88;4.55;;;9.10;99.90;;;;;;5052299;28;20048;-59
2023/03/26 05:13:38;;;;;;;30.35;4.15;;;8.70;99.90;;;;;;5051885;28;20033;-59
2023/03/26 05:16:04;;;;;;;20.65;3.90;;;8.90;99.90;;;;;;5050134;28;20376;-59
2023/03/26 05:18:31;;;;;;;18.65;3.88;;;8.80;99.90;;;;;;5052320;28;20040;-59
2023/03/26 05:20:56;;;;;;;23.38;4.43;;;8.80;99.90;;;;;;5049612;28;20178;-60
2023/03/26 05:23:22;;;;;;;19.17;4.30;;;8.80;99.90;;;;;;5050289;28;20178;-59
2023/03/26 05:25:48;;;;;;;24.35;4.03;;;8.90;99.90;;;;;;5051809;28;20618;-60
2023/03/26 05:28:13;;;;;;;24.67;4.05;;;8.60;99.90;;;;;;5051411;28;20384;-59
2023/03/26 05:30:42;;;;;;;31.85;4.32;;;8.60;99.90;;;;;;5051882;28;20102;-60
2023/03/26 05:33:07;;;;;;;30.55;4.57;;;8.50;99.90;;;;;;5045380;28;20073;-59
2023/03/26 05:35:33;;;;;;;28.75;4.47;;;8.50;99.90;;;;;;5051349;28;20134;-60
2023/03/26 05:37:59;;;;;;;31.05;4.40;;;8.60;99.90;;;;;;5051899;28;20033;-59
2023/03/26 05:40:24;;;;;;;22.85;3.85;;;8.50;99.90;;;;;;5035976;28;20040;-59
2023/03/26 05:42:50;;;;;;;22.73;3.83;;;8.70;99.90;;;;;;5031777;28;20069;-59
2023/03/26 05:45:15;;;;;;;21.52;4.35;;;8.80;99.90;;;;;;5031117;28;20566;-59
2023/03/26 05:47:42;;;;;;;20.85;3.92;;;8.70;99.90;;;;;;5031950;28;20438;-59
2023/03/26 05:50:09;;;;;;;23.02;3.88;;;8.80;99.90;;;;;;5030892;28;20045;-60
2023/03/26 05:52:34;;;;;;;24.70;3.67;;;8.70;99.90;;;;;;5031702;28;20049;-60
2023/03/26 05:55:00;;;;;;;24.52;4.43;;;8.80;99.90;;;;;;5050709;28;20116;-59
2023/03/26 05:57:29;;;;;;;24.55;4.22;;;8.60;99.90;;;;;;5051314;28;20047;-59
2023/03/26 05:59:57;;;;;;;17.08;3.75;;;8.80;99.90;;;;;;5051594;28;20394;-59
2023/03/26 06:02:22;;;;;;;16.92;3.75;;;8.70;99.90;;;;;;5051638;28;20080;-59
2023/03/26 06:04:49;;;;;;;22.05;4.13;;;8.80;99.90;;;;;;5046237;28;20091;-59
2023/03/26 06:07:16;;;;;;;15.15;2.92;;;8.70;99.90;;;;;;5051212;28;20119;-59
2023/03/26 06:09:42;;;;;;;19.65;3.50;;;8.60;99.90;;;;;;5051317;28;20045;-59
2023/03/26 06:12:09;;;;;;;20.05;4.20;;;8.70;99.90;;;;;;5051188;28;20044;-60
2023/03/26 06:14:36;;;;;;;15.85;3.50;;;8.70;99.90;;;;;;5037718;28;20387;-59
2023/03/26 06:17:02;;;;;;;16.10;3.78;;;8.80;99.90;;;;;;5037122;28;20041;-60
2023/03/26 06:19:27;;;;;;;22.38;3.85;;;8.80;99.90;;;;;;5050161;28;20670;-59
2023/03/26 06:21:53;;;;;;;13.70;3.38;;;8.70;99.90;;;;;;5034892;28;20132;-59
2023/03/26 06:24:19;;;;;;;15.20;3.78;;;8.70;99.90;;;;;;5045896;28;20033;-59
2023/03/26 06:26:45;;;;;;;15.65;3.58;;;8.90;99.90;;;;;;5049251;28;20029;-59
2023/03/26 06:29:15;;;;;;;26.98;3.65;;;8.90;99.90;;;;;;5049883;28;20048;-59
2023/03/26 06:31:40;;;;;;;23.35;4.03;;;8.80;99.90;;;;;;5051008;28;20041;-59
2023/03/26 06:34:06;;;;;;;28.02;3.70;;;8.80;99.90;;;;;;5051055;28;20055;-59
2023/03/26 06:36:32;;;;;;;19.95;4.07;;;9.00;99.90;;;;;;5049677;28;20120;-59
2023/03/26 06:38:57;;;;;;;19.35;3.72;;;9.30;99.90;;;;;;5049159;28;20120;-59
2023/03/26 06:41:23;;;;;;;22.10;3.60;;;8.90;99.90;;;;;;5049424;28;20044;-59
2023/03/26 06:43:49;;;;;;;27.20;4.32;;;8.90;99.90;;;;;;5050745;28;20107;-59
2023/03/26 06:46:14;;;;;;;17.90;3.85;;;9.00;99.90;;;;;;5050702;28;20040;-59
2023/03/26 06:48:41;;;;;;;16.23;3.65;;;8.90;99.90;;;;;;5046040;28;20207;-59
2023/03/26 06:51:07;;;;;;;13.93;2.95;;;9.30;99.90;;;;;;5045640;28;20514;-59
2023/03/26 06:53:32;;;;;;;20.38;4.45;;;8.90;99.90;;;;;;5050883;28;20043;-60
2023/03/26 06:55:58;;;;;;;15.50;3.30;;;8.90;99.90;;;;;;5042794;28;20045;-59
2023/03/26 06:58:24;;;;;;;22.75;3.92;;;9.10;99.90;;;;;;5049384;28;20032;-60
2023/03/26 07:00:52;;;;;;;22.58;4.03;;;9.00;99.90;;;;;;5031791;28;20053;-59
2023/03/26 07:03:18;;;;;;;23.60;4.13;;;9.00;99.90;;;;;;5044935;28;20040;-59
2023/03/26 07:05:44;;;;;;;17.38;3.53;;;9.00;99.90;;;;;;5046506;28;20485;-59
2023/03/26 07:08:09;;;;;;;13.00;3.55;;;9.90;99.90;;;;;;5047870;28;20048;-59
2023/03/26 07:10:35;;;;;;;21.25;4.18;;;9.10;99.90;;;;;;5048381;28;20048;-60
2023/03/26 07:13:01;;;;;;;15.07;3.70;;;9.10;99.90;;;;;;5046373;28;20044;-59
2023/03/26 07:15:27;;;;;;;15.93;3.83;;;9.00;99.90;;;;;;5040922;28;20120;-59
2023/03/26 07:17:53;;;;;;;17.77;3.80;;;9.10;99.90;;;;;;5054332;28;20086;-59
2023/03/26 07:20:19;;;;;;;13.27;3.20;;;9.00;99.90;;;;;;5051315;28;20513;-59
2023/03/26 07:22:45;;;;;;;16.20;3.15;;;9.10;99.90;;;;;;5053812;28;20049;-60
2023/03/26 07:25:13;;;;;;;21.77;3.80;;;9.20;99.90;;;;;;5052899;28;20495;-59
2023/03/26 07:28:05;;;;;;;12.23;3.03;;;9.10;99.90;;;;;;5043013;28;20403;-59
2023/03/26 07:30:49;;;;;;;17.80;3.63;;;9.20;99.90;;;;;;5041562;28;20442;-59
2023/03/26 07:33:29;;;;;;;17.73;3.58;;;9.20;99.90;;;;;;5043199;28;20080;-59
2023/03/26 07:36:17;;;;;;;12.02;3.22;;;9.20;99.90;;;;;;5035289;28;20519;-59
2023/03/26 07:38:49;;;;;;;15.35;3.17;;;9.50;99.90;;;;;;5039381;28;20087;-59
2023/03/26 07:41:33;;;;;;;14.43;3.13;;;9.20;99.90;;;;;;5043891;28;20114;-60
2023/03/26 07:44:24;;;;;;;14.07;3.15;;;9.20;99.90;;;;;;5038946;28;20041;-59
2023/03/26 07:46:52;;;;;;;16.63;3.00;;;9.30;28.80;;;;;;5052527;28;20502;-59
2023/03/26 07:49:19;;;;;;;14.90;3.28;;;9.30;99.90;;;;;;5049811;28;20036;-59
2023/03/26 07:51:45;;;;;;;21.98;3.55;;;9.40;1.00;;;;;;5039636;28;20116;-60
2023/03/26 07:54:11;;;;;;;15.05;3.33;;;9.30;1.00;;;;;;5059428;28;20099;-59
2023/03/26 07:56:44;;;;;;;20.50;4.07;;;9.30;1.00;;;;;;5032931;28;20033;-60
2023/03/26 07:59:33;;;;;;;12.40;3.67;;;9.40;48.50;;;;;;5034823;28;20041;-60
2023/03/26 08:02:19;;;;;;;14.48;3.08;;;9.40;99.90;;;;;;5045700;28;20102;-59
2023/03/26 08:05:17;;;;;;;11.45;3.47;;;9.50;1.00;;;;;;5037598;28;20513;-59
2023/03/26 08:08:04;;;;;;;13.65;2.85;;;9.50;99.90;;;;;;5052439;28;20106;-60
2023/03/26 08:11:01;;;;;;;20.58;3.65;;;9.60;1.00;;;;;;5047777;28;20033;-59
2023/03/26 08:13:33;;;;;;;17.17;3.22;;;9.70;99.90;;;;;;5053109;28;20040;-60
2023/03/26 08:16:35;;;;;;;16.27;3.05;;;9.80;32.10;;;;;;5052577;28;20108;-60
2023/03/26 08:19:20;;;;;;;20.85;3.80;;;9.80;1.00;;;;;;5006978;28;20053;-59
2023/03/26 08:21:54;;;;;;;15.98;3.33;;;9.80;99.90;;;;;;5052582;28;20203;-59
2023/03/26 08:24:52;;;;;;;16.73;3.38;;;9.90;89.30;;;;;;5050645;28;20064;-59
2023/03/26 08:27:43;;;;;;;16.77;3.10;;;9.90;1.00;;;;;;5045238;28;20060;-59
2023/03/26 08:30:21;;;;;;;13.57;3.20;;;9.70;99.90;;;;;;5047080;28;20131;-60
2023/03/26 08:32:56;;;;;;;17.25;3.50;;;9.60;47.60;;;;;;5038317;28;20037;-59
2023/03/26 08:35:22;;;;;;;16.60;3.55;;;9.60;1.00;;;;;;5049295;28;20056;-59
2023/03/26 08:37:48;;;;;;;19.40;3.80;;;9.60;1.00;;;;;;5043410;28;20049;-60
2023/03/26 08:40:43;;;;;;;16.75;3.47;;;9.60;1.00;;;;;;5033626;28;20044;-59
2023/03/26 08:43:46;;;;;;;17.95;3.90;;;9.60;1.00;;;;;;5028655;28;20379;-59
2023/03/26 08:47:00;;;;;;;12.82;3.30;;;9.60;99.90;;;;;;5042881;28;20737;-59
2023/03/26 08:49:54;;;;;;;13.43;3.08;;;9.50;99.90;;;;;;5037208;28;20375;-59
2023/03/26 08:52:46;;;;;;;12.40;3.20;;;9.50;99.90;;;;;;5038938;28;20036;-59
2023/03/26 08:55:35;;;;;;;19.33;3.50;;;9.60;99.90;;;;;;5044752;28;20053;-59
2023/03/26 08:58:48;;;;;;;14.18;2.92;;;9.70;99.90;;;;;;5050471;28;20041;-59
2023/03/26 09:01:38;;;;;;;23.60;3.78;;;9.70;99.90;;;;;;5036651;28;20041;-60
2023/03/26 09:04:40;;;;;;;19.20;3.40;;;9.60;99.90;;;;;;5042493;28;20525;-59
2023/03/26 09:07:40;;;;;;;11.38;3.15;;;9.60;97.80;;;;;;5046941;28;20422;-59
2023/03/26 09:10:17;;;;;;;17.52;3.25;;;9.70;99.90;;;;;;5035593;28;20048;-59
2023/03/26 09:13:27;;;;;;;14.07;3.28;;;9.70;28.70;;;;;;5052314;28;20033;-60
2023/03/26 09:16:07;;;;;;;17.52;3.53;;;9.70;1.00;;;;;;5008679;28;20065;-59
2023/03/26 09:18:57;;;;;;;13.43;3.35;;;9.80;1.00;;;;;;5044271;28;20403;-59
2023/03/26 09:21:37;;;;;;;12.85;3.08;;;9.80;1.00;;;;;;5041758;28;20063;-60
2023/03/26 09:24:46;;;;;;;19.17;3.45;;;9.90;1.00;;;;;;5052001;28;20037;-60
2023/03/26 09:27:35;;;;;;;11.90;3.10;;;9.80;1.00;;;;;;5038458;28;20403;-60
2023/03/26 09:30:30;;;;;;;16.90;2.78;;;9.80;99.90;;;;;;5048848;28;20040;-59
2023/03/26 09:33:15;;;;;;;18.77;3.03;;;9.80;1.00;;;;;;5032021;28;20124;-59
2023/03/26 09:35:50;;;;;;;12.63;3.25;;;9.70;99.90;;;;;;5035274;28;20433;-60
2023/03/26 09:38:28;;;;;;;16.23;3.53;;;9.70;99.90;;;;;;5035949;28;20041;-59
2023/03/26 09:41:02;;;;;;;17.60;3.25;;;9.70;99.90;;;;;;5050292;28;20041;-59
2023/03/26 09:43:47;;;;;;;10.77;3.50;;;9.70;99.90;;;;;;5051734;28;20079;-60
2023/03/26 09:46:18;;;;;;;13.15;3.15;;;9.70;99.90;;;;;;5045277;28;20809;-60
2023/03/26 09:49:08;;;;;;;17.98;3.30;;;9.70;99.90;;;;;;5034293;28;20440;-60
2023/03/26 09:51:55;;;;;;;19.08;3.58;;;9.70;99.90;;;;;;5036413;28;20037;-60
2023/03/26 09:54:47;;;;;;;18.23;3.55;;;9.70;99.90;;;;;;5032371;28;20560;-59
2023/03/26 09:57:31;;;;;;;12.48;3.10;;;9.70;99.90;;;;;;5042621;28;20052;-60
2023/03/26 10:00:20;;;;;;;12.45;3.63;;;9.60;99.90;;;;;;5031321;28;20037;-60
2023/03/26 10:03:04;;;;;;;15.65;3.03;;;9.70;99.90;;;;;;5036680;28;20045;-60
2023/03/26 10:05:56;;;;;;;16.45;2.72;;;9.80;99.90;;;;;;5048895;28;20452;-61
2023/03/26 10:08:28;;;;;;;17.23;3.35;;;9.80;99.90;;;;;;5041606;28;20033;-60
2023/03/26 10:11:15;;;;;;;9.98;3.10;;;10.00;99.90;;;;;;5048802;28;20441;-60
2023/03/26 10:13:46;;;;;;;14.55;3.20;;;9.60;99.90;;;;;;5035126;28;20033;-61
2023/03/26 10:16:25;;;;;;;13.23;3.35;;;9.60;86.20;;;;;;5039659;28;20403;-60
2023/03/26 10:18:56;;;;;;;18.75;2.92;;;9.50;80.60;;;;;;5036347;28;20056;-60
2023/03/26 10:22:02;;;;;;;11.73;3.28;;;9.50;68.50;;;;;;5036966;28;20047;-60
2023/03/26 10:24:57;;;;;;;18.52;3.10;;;9.60;67.30;;;;;;5038061;28;20060;-60
2023/03/26 10:27:36;;;;;;;15.00;3.25;;;9.70;72.40;;;;;;5043378;28;20064;-61
2023/03/26 10:30:21;;;;;;;14.93;3.22;;;9.60;32.70;;;;;;5031810;28;20042;-60
2023/03/26 10:33:15;;;;;;;13.05;2.88;;;9.60;1.00;;;;;;5044120;28;20435;-60
2023/03/26 10:36:18;;;;;;;13.20;3.05;;;9.60;1.00;;;;;;5045734;28;20049;-60
2023/03/26 10:39:02;;;;;;;15.38;2.70;;;9.60;1.00;;;;;;5037831;28;20048;-60
2023/03/26 10:41:40;;;;;;;18.48;3.28;;;9.60;1.00;;;;;;5032698;28;20037;-59
2023/03/26 10:44:32;;;;;;;11.57;2.63;;;9.70;1.00;;;;;;5048380;28;20124;-59
2023/03/26 10:47:16;;;;;;;11.90;3.13;;;9.70;1.00;;;;;;5037060;28;20068;-60
2023/03/26 10:50:06;;;;;;;12.25;2.65;;;9.70;1.00;;;;;;5030785;28;20120;-59
2023/03/26 10:52:50;;;;;;;17.13;3.33;;;9.70;1.00;;;;;;5044024;28;20041;-59
2023/03/26 10:55:21;;;;;;;12.45;3.13;;;9.70;1.00;;;;;;5052096;28;20098;-59
2023/03/26 10:58:01;;;;;;;11.90;2.65;;;9.80;1.00;;;;;;5033195;28;20575;-59
2023/03/26 11:00:28;;;;;;;11.15;3.25;;;9.90;1.00;;;;;;5038743;28;20041;-59
2023/03/26 11:03:32;;;;;;;13.65;3.33;;;9.80;1.00;;;;;;5043065;28;20053;-59
2023/03/26 11:06:03;;;;;;;14.07;3.28;;;9.80;1.00;;;;;;5024563;28;20072;-59
2023/03/26 11:08:40;;;;;;;9.93;3.05;;;9.80;99.90;;;;;;5046161;28;20075;-59
2023/03/26 11:11:12;;;;;;;9.40;2.33;;;10.00;99.90;;;;;;5034099;28;20106;-59
2023/03/26 11:13:40;;;;;;;12.73;2.55;;;10.00;99.90;;;;;;5050473;28;20095;-59
2023/03/26 11:16:31;;;;;;;11.57;2.78;;;9.90;99.90;;;;;;5040585;28;20045;-59
2023/03/26 11:19:23;;;;;;;9.38;2.67;;;9.80;99.90;;;;;;5045106;28;20120;-59
2023/03/26 11:22:02;;;;;;;15.60;3.15;;;9.70;99.90;;;;;;5048637;28;20067;-60
2023/03/26 11:25:02;;;;;;;8.13;2.50;;;9.70;99.90;;;;;;5033530;28;20565;-59
2023/03/26 11:27:51;;;;;;;13.85;3.35;;;9.70;99.90;;;;;;5036216;28;20038;-59
2023/03/26 11:30:16;;;;;;;12.48;3.00;;;9.60;99.90;;;;;;5029644;28;20056;-59
2023/03/26 11:32:47;;;;;;;10.68;2.45;;;9.70;99.90;;;;;;5047547;28;20037;-59
2023/03/26 11:35:32;;;;;;;13.98;2.85;;;9.70;99.90;;;;;;5046909;28;20060;-59
2023/03/26 11:38:04;;;;;;;15.43;3.05;;;9.60;99.90;;;;;;5034277;28;20511;-59
2023/03/26 11:40:40;;;;;;;13.25;2.63;;;9.50;99.90;;;;;;5032986;28;20518;-59
2023/03/26 11:43:10;;;;;;;12.43;2.88;;;9.50;99.90;;;;;;5034976;28;20565;-59
2023/03/26 11:45:40;;;;;;;10.90;2.35;;;9.50;99.90;;;;;;5044628;28;20065;-59
2023/03/26 11:48:32;;;;;;;9.55;2.30;;;9.40;99.90;;;;;;5031566;28;20045;-59
2023/03/26 11:51:06;;;;;;;9.23;2.65;;;9.50;99.90;;;;;;5035126;28;20063;-59
2023/03/26 11:53:37;;;;;;;8.20;2.22;;;9.50;99.90;;;;;;5048538;28;20548;-59
2023/03/26 11:56:26;;;;;;;7.53;2.63;;;9.50;99.90;;;;;;5034927;28;20048;-59
2023/03/26 11:59:26;;;;;;;10.55;2.65;;;9.40;99.90;;;;;;5041263;28;20077;-59
2023/03/26 12:01:56;;;;;;;8.50;2.60;;;9.30;99.90;;;;;;5037919;28;20147;-59
2023/03/26 12:04:39;;;;;;;12.32;2.78;;;9.30;99.90;;;;;;5045306;28;20107;-59
2023/03/26 12:07:17;;;;;;;12.35;2.47;;;9.40;99.90;;;;;;5037146;28;20034;-59
2023/03/26 12:09:54;;;;;;;7.63;2.03;;;9.50;99.90;;;;;;5034081;28;20238;-59
2023/03/26 12:12:23;;;;;;;10.13;2.53;;;9.40;99.90;;;;;;5044263;28;20036;-59
2023/03/26 12:14:49;;;;;;;10.82;2.50;;;9.50;99.90;;;;;;5039086;28;20313;-59
2023/03/26 12:17:28;;;;;;;8.50;2.22;;;9.50;99.90;;;;;;5046547;28;20090;-59
2023/03/26 12:19:54;;;;;;;13.90;2.63;;;9.40;99.90;;;;;;5039798;28;20037;-59
2023/03/26 12:22:37;;;;;;;16.63;2.88;;;9.80;99.90;;;;;;5040370;28;20602;-59
2023/03/26 12:25:21;;;;;;;17.63;2.85;;;9.50;99.90;;;;;;5039621;28;20057;-59
2023/03/26 12:27:49;;;;;;;11.98;2.65;;;9.50;99.90;;;;;;5036929;28;20429;-59
2023/03/26 12:30:19;;;;;;;9.70;2.55;;;9.40;99.90;;;;;;5038406;28;20167;-59
2023/03/26 12:32:47;;;;;;;10.93;2.60;;;9.40;99.90;;;;;;5036131;28;20107;-59
2023/03/26 12:35:21;;;;;;;8.43;2.72;;;9.70;99.90;;;;;;5040093;28;20037;-59
2023/03/26 12:37:47;;;;;;;12.75;2.47;;;9.40;99.90;;;;;;5032778;28;20438;-59
2023/03/26 12:40:33;;;;;;;7.70;2.50;;;9.40;99.90;;;;;;5038551;28;20120;-59
2023/03/26 12:43:00;;;;;;;13.00;3.10;;;9.40;99.90;;;;;;5033882;28;20041;-59
2023/03/26 12:45:30;;;;;;;11.27;2.70;;;9.40;99.90;;;;;;5040412;28;20045;-60
2023/03/26 12:47:57;;;;;;;9.32;2.38;;;9.40;99.90;;;;;;5036790;28;20499;-59
2023/03/26 12:50:47;;;;;;;9.88;2.10;;;9.40;99.90;;;;;;5039240;28;20044;-59
2023/03/26 12:53:37;;;;;;;12.07;2.35;;;9.40;99.90;;;;;;5038110;28;20037;-59
2023/03/26 12:56:34;;;;;;;6.72;2.10;;;9.30;99.90;;;;;;5044586;28;20041;-59
2023/03/26 12:59:35;;;;;;;7.63;2.30;;;9.30;99.90;;;;;;5037106;28;20068;-59
2023/03/26 13:02:13;;;;;;;10.30;2.40;;;9.20;99.90;;;;;;5042476;28;20527;-58
2023/03/26 13:05:20;;;;;;;8.82;2.65;;;9.10;99.90;;;;;;5039940;28;20049;-59
2023/03/26 13:08:05;;;;;;;5.68;2.17;;;9.00;99.90;;;;;;5005293;28;20050;-59
2023/03/26 13:10:42;;;;;;;4.65;1.80;;;8.90;99.90;;;;;;4997374;28;20042;-59
2023/03/26 13:13:43;;;;;;;10.35;2.40;;;8.90;99.90;;;;;;5020114;28;20796;-59
2023/03/26 13:16:48;;;;;;;7.90;2.88;;;9.00;99.90;;;;;;5043059;28;20532;-59
2023/03/26 13:19:39;;;;;;;11.50;2.28;;;9.30;99.90;;;;;;5045851;28;20057;-59
2023/03/26 13:22:23;;;;;;;10.65;2.63;;;9.40;99.90;;;;;;5041845;28;20046;-59
2023/03/26 13:25:27;;;;;;;7.13;2.15;;;9.40;99.90;;;;;;5033897;28;20056;-59
2023/03/26 13:28:07;;;;;;;7.93;2.17;;;9.40;99.90;;;;;;5041514;28;20948;-59